sensor_id;sensor_type;location;lat;lon;timestamp;temperature;humidity
41344;DHT22;27089;50.022;7.604;2023-12-20T00:01:56;5.80;99.90
41344;DHT22;27089;50.022;7.604;2023-12-20T00:04:23;5.70;99.90
41344;DHT22;27089;50.022;7.604;2023-12-20T00:06:50;5.80;99.90
41344;DHT22;27089;50.022;7.604;2023-12-20T00:09:17;5.80;99.90
41344;DHT22;27089;50.022;7.604;2023-12-20T00:11:46;5.80;99.90
41344;DHT22;27089;50.022;7.604;2023-12-20T00:14:13;5.80;99.90
41344;DHT22;27089;50.022;7.604;2023-12-20T00:16:38;5.80;99.90
41344;DHT22;27089;50.022;7.604;2023-12-20T00:19:05;5.80;99.90
41344;DHT22;27089;50.022;7.604;2023-12-20T00:21:33;5.70;99.90
41344;DHT22;27089;50.022;7.604;2023-12-20T00:24:00;5.70;99.90
41344;DHT22;27089;50.022;7.604;2023-12-20T00:26:27;5.80;99.90
41344;DHT22;27089;50.022;7.604;2023-12-20T00:28:55;5.80;99.90
41344;DHT22;27089;50.022;7.604;2023-12-20T00:31:22;5.80;99.90
41344;DHT22;27089;50.022;7.604;2023-12-20T00:33:49;5.80;99.90
41344;DHT22;27089;50.022;7.604;2023-12-20T00:36:19;5.80;99.90
41344;DHT22;27089;50.022;7.604;2023-12-20T00:38:46;5.80;99.90
41344;DHT22;27089;50.022;7.604;2023-12-20T00:41:13;5.80;99.90
41344;DHT22;27089;50.022;7.604;2023-12-20T00:43:39;5.80;99.90
41344;DHT22;27089;50.022;7.604;2023-12-20T00:46:08;5.80;99.90
41344;DHT22;27089;50.022;7.604;2023-12-20T00:48:35;5.80;99.90
41344;DHT22;27089;50.022;7.604;2023-12-20T00:51:02;5.80;99.90
41344;DHT22;27089;50.022;7.604;2023-12-20T00:53:29;5.80;99.90
41344;DHT22;27089;50.022;7.604;2023-12-20T00:55:56;5.80;99.90
41344;DHT22;27089;50.022;7.604;2023-12-20T00:58:24;5.80;99.90
41344;DHT22;27089;50.022;7.604;2023-12-20T01:00:52;5.80;99.90
41344;DHT22;27089;50.022;7.604;2023-12-20T01:03:20;5.80;99.90
41344;DHT22;27089;50.022;7.604;2023-12-20T01:05:48;5.80;99.90
41344;DHT22;27089;50.022;7.604;2023-12-20T01:08:15;5.80;99.90
41344;DHT22;27089;50.022;7.604;2023-12-20T01:10:41;5.80;99.90
41344;DHT22;27089;50.022;7.604;2023-12-20T01:13:08;5.90;99.90
41344;DHT22;27089;50.022;7.604;2023-12-20T01:15:35;5.80;99.90
41344;DHT22;27089;50.022;7.604;2023-12-20T01:18:03;5.90;99.90
41344;DHT22;27089;50.022;7.604;2023-12-20T01:20:31;5.90;99.90
41344;DHT22;27089;50.022;7.604;2023-12-20T01:22:58;5.80;99.90
41344;DHT22;27089;50.022;7.604;2023-12-20T01:25:25;5.90;99.90
41344;DHT22;27089;50.022;7.604;2023-12-20T01:27:53;5.80;99.90
41344;DHT22;27089;50.022;7.604;2023-12-20T01:30:20;5.90;99.90
41344;DHT22;27089;50.022;7.604;2023-12-20T01:32:47;5.90;99.90
41344;DHT22;27089;50.022;7.604;2023-12-20T01:35:14;5.90;99.90
41344;DHT22;27089;50.022;7.604;2023-12-20T01:37:42;5.90;99.90
41344;DHT22;27089;50.022;7.604;2023-12-20T01:40:10;5.90;99.90
41344;DHT22;27089;50.022;7.604;2023-12-20T01:42:37;5.90;99.90
41344;DHT22;27089;50.022;7.604;2023-12-20T01:45:05;5.90;99.90
41344;DHT22;27089;50.022;7.604;2023-12-20T01:47:32;5.90;99.90
41344;DHT22;27089;50.022;7.604;2023-12-20T01:49:59;5.90;99.90
41344;DHT22;27089;50.022;7.604;2023-12-20T01:52:29;5.90;99.90
41344;DHT22;27089;50.022;7.604;2023-12-20T01:54:59;6.00;99.90
41344;DHT22;27089;50.022;7.604;2023-12-20T01:57:28;6.00;99.90
41344;DHT22;27089;50.022;7.604;2023-12-20T01:59:56;6.00;99.90
41344;DHT22;27089;50.022;7.604;2023-12-20T02:02:23;6.00;99.90
41344;DHT22;27089;50.022;7.604;2023-12-20T02:04:50;6.10;99.90
41344;DHT22;27089;50.022;7.604;2023-12-20T02:07:18;6.10;99.90
41344;DHT22;27089;50.022;7.604;2023-12-20T02:09:46;6.10;99.90
41344;DHT22;27089;50.022;7.604;2023-12-20T02:12:15;6.10;99.90
41344;DHT22;27089;50.022;7.604;2023-12-20T02:14:43;6.10;99.90
41344;DHT22;27089;50.022;7.604;2023-12-20T02:17:10;6.10;99.90
41344;DHT22;27089;50.022;7.604;2023-12-20T02:19:36;6.10;99.90
41344;DHT22;27089;50.022;7.604;2023-12-20T02:22:09;6.10;99.90
41344;DHT22;27089;50.022;7.604;2023-12-20T02:24:36;6.10;99.90
41344;DHT22;27089;50.022;7.604;2023-12-20T02:27:03;6.10;99.90
41344;DHT22;27089;50.022;7.604;2023-12-20T02:29:32;6.10;99.90
41344;DHT22;27089;50.022;7.604;2023-12-20T02:31:59;6.10;99.90
41344;DHT22;27089;50.022;7.604;2023-12-20T02:34:27;6.10;99.90
41344;DHT22;27089;50.022;7.604;2023-12-20T02:36:54;6.20;99.90
41344;DHT22;27089;50.022;7.604;2023-12-20T02:39:22;6.20;99.90
41344;DHT22;27089;50.022;7.604;2023-12-20T02:41:49;6.20;99.90
41344;DHT22;27089;50.022;7.604;2023-12-20T02:44:16;6.20;99.90
41344;DHT22;27089;50.022;7.604;2023-12-20T02:46:43;6.20;99.90
41344;DHT22;27089;50.022;7.604;2023-12-20T02:49:10;6.20;99.90
41344;DHT22;27089;50.022;7.604;2023-12-20T02:51:37;6.20;99.90
41344;DHT22;27089;50.022;7.604;2023-12-20T02:54:04;6.20;99.90
41344;DHT22;27089;50.022;7.604;2023-12-20T02:56:33;6.20;99.90
41344;DHT22;27089;50.022;7.604;2023-12-20T02:59:00;6.20;99.90
41344;DHT22;27089;50.022;7.604;2023-12-20T03:01:28;6.20;99.90
41344;DHT22;27089;50.022;7.604;2023-12-20T03:03:55;6.20;99.90
41344;DHT22;27089;50.022;7.604;2023-12-20T03:06:22;6.20;99.90
41344;DHT22;27089;50.022;7.604;2023-12-20T03:08:49;6.20;99.90
41344;DHT22;27089;50.022;7.604;2023-12-20T03:11:16;6.20;99.90
41344;DHT22;27089;50.022;7.604;2023-12-20T03:13:44;6.20;99.90
41344;DHT22;27089;50.022;7.604;2023-12-20T03:16:12;6.20;99.90
41344;DHT22;27089;50.022;7.604;2023-12-20T03:18:39;6.20;99.90
41344;DHT22;27089;50.022;7.604;2023-12-20T03:21:06;6.20;99.90
41344;DHT22;27089;50.022;7.604;2023-12-20T03:23:33;6.20;99.90
41344;DHT22;27089;50.022;7.604;2023-12-20T03:26:00;6.20;99.90
41344;DHT22;27089;50.022;7.604;2023-12-20T03:28:27;6.20;99.90
41344;DHT22;27089;50.022;7.604;2023-12-20T03:30:56;6.20;99.90
41344;DHT22;27089;50.022;7.604;2023-12-20T03:33:23;6.10;99.90
41344;DHT22;27089;50.022;7.604;2023-12-20T03:35:50;6.10;99.90
41344;DHT22;27089;50.022;7.604;2023-12-20T03:38:17;6.10;99.90
41344;DHT22;27089;50.022;7.604;2023-12-20T03:40:45;6.10;99.90
41344;DHT22;27089;50.022;7.604;2023-12-20T03:43:11;6.10;99.90
41344;DHT22;27089;50.022;7.604;2023-12-20T03:45:38;6.00;99.90
41344;DHT22;27089;50.022;7.604;2023-12-20T03:48:07;6.00;99.90
41344;DHT22;27089;50.022;7.604;2023-12-20T03:50:35;6.00;99.90
41344;DHT22;27089;50.022;7.604;2023-12-20T03:53:02;6.00;99.90
41344;DHT22;27089;50.022;7.604;2023-12-20T03:55:30;6.00;99.90
41344;DHT22;27089;50.022;7.604;2023-12-20T03:57:57;5.90;99.90
41344;DHT22;27089;50.022;7.604;2023-12-20T04:00:24;5.70;99.90
41344;DHT22;27089;50.022;7.604;2023-12-20T04:02:51;5.50;99.90
41344;DHT22;27089;50.022;7.604;2023-12-20T04:05:19;5.30;99.90
41344;DHT22;27089;50.022;7.604;2023-12-20T04:07:45;5.10;99.90
41344;DHT22;27089;50.022;7.604;2023-12-20T04:10:12;4.90;99.90
41344;DHT22;27089;50.022;7.604;2023-12-20T04:12:39;4.60;99.90
41344;DHT22;27089;50.022;7.604;2023-12-20T04:15:07;4.50;99.90
41344;DHT22;27089;50.022;7.604;2023-12-20T04:17:37;4.40;99.90
41344;DHT22;27089;50.022;7.604;2023-12-20T04:20:05;4.40;99.90
41344;DHT22;27089;50.022;7.604;2023-12-20T04:22:34;4.40;99.90
41344;DHT22;27089;50.022;7.604;2023-12-20T04:25:00;4.40;99.90
41344;DHT22;27089;50.022;7.604;2023-12-20T04:27:27;4.40;99.90
41344;DHT22;27089;50.022;7.604;2023-12-20T04:29:56;4.40;99.90
41344;DHT22;27089;50.022;7.604;2023-12-20T04:32:23;4.30;99.90
41344;DHT22;27089;50.022;7.604;2023-12-20T04:34:50;4.20;99.90
41344;DHT22;27089;50.022;7.604;2023-12-20T04:37:17;4.10;99.90
41344;DHT22;27089;50.022;7.604;2023-12-20T04:39:46;4.00;99.90
41344;DHT22;27089;50.022;7.604;2023-12-20T04:42:13;3.90;99.90
41344;DHT22;27089;50.022;7.604;2023-12-20T04:44:40;3.90;99.90
41344;DHT22;27089;50.022;7.604;2023-12-20T04:47:07;3.90;99.90
41344;DHT22;27089;50.022;7.604;2023-12-20T04:49:34;3.90;99.90
41344;DHT22;27089;50.022;7.604;2023-12-20T04:52:01;3.90;99.90
41344;DHT22;27089;50.022;7.604;2023-12-20T04:54:28;3.90;99.90
41344;DHT22;27089;50.022;7.604;2023-12-20T04:56:56;4.00;99.90
41344;DHT22;27089;50.022;7.604;2023-12-20T04:59:23;4.00;99.90
41344;DHT22;27089;50.022;7.604;2023-12-20T05:01:51;4.00;99.90
41344;DHT22;27089;50.022;7.604;2023-12-20T05:04:18;4.10;99.90
41344;DHT22;27089;50.022;7.604;2023-12-20T05:06:46;4.20;99.90
41344;DHT22;27089;50.022;7.604;2023-12-20T05:09:13;4.30;99.90
41344;DHT22;27089;50.022;7.604;2023-12-20T05:11:40;4.30;99.90
41344;DHT22;27089;50.022;7.604;2023-12-20T05:14:08;4.30;99.90
41344;DHT22;27089;50.022;7.604;2023-12-20T05:16:35;4.20;99.90
41344;DHT22;27089;50.022;7.604;2023-12-20T05:19:02;4.10;99.90
41344;DHT22;27089;50.022;7.604;2023-12-20T05:21:32;4.10;99.90
41344;DHT22;27089;50.022;7.604;2023-12-20T05:23:59;4.10;99.90
41344;DHT22;27089;50.022;7.604;2023-12-20T05:26:26;4.10;99.90
41344;DHT22;27089;50.022;7.604;2023-12-20T05:28:55;4.10;99.90
41344;DHT22;27089;50.022;7.604;2023-12-20T05:31:23;4.20;99.90
41344;DHT22;27089;50.022;7.604;2023-12-20T05:33:50;4.10;99.90
41344;DHT22;27089;50.022;7.604;2023-12-20T05:36:17;4.00;99.90
41344;DHT22;27089;50.022;7.604;2023-12-20T05:38:44;3.90;99.90
41344;DHT22;27089;50.022;7.604;2023-12-20T05:41:11;3.80;99.90
41344;DHT22;27089;50.022;7.604;2023-12-20T05:43:39;3.80;99.90
41344;DHT22;27089;50.022;7.604;2023-12-20T05:46:06;3.70;99.90
41344;DHT22;27089;50.022;7.604;2023-12-20T05:48:34;3.60;99.90
41344;DHT22;27089;50.022;7.604;2023-12-20T05:51:02;3.50;99.90
41344;DHT22;27089;50.022;7.604;2023-12-20T05:53:29;3.40;99.90
41344;DHT22;27089;50.022;7.604;2023-12-20T05:55:56;3.30;99.90
41344;DHT22;27089;50.022;7.604;2023-12-20T05:58:23;3.40;99.90
41344;DHT22;27089;50.022;7.604;2023-12-20T06:00:50;3.40;99.90
41344;DHT22;27089;50.022;7.604;2023-12-20T06:03:17;3.40;99.90
41344;DHT22;27089;50.022;7.604;2023-12-20T06:05:45;3.50;99.90
41344;DHT22;27089;50.022;7.604;2023-12-20T06:08:13;3.60;99.90
41344;DHT22;27089;50.022;7.604;2023-12-20T06:10:40;3.70;99.90
41344;DHT22;27089;50.022;7.604;2023-12-20T06:13:07;3.80;99.90
41344;DHT22;27089;50.022;7.604;2023-12-20T06:15:34;3.90;99.90
41344;DHT22;27089;50.022;7.604;2023-12-20T06:18:01;3.90;99.90
41344;DHT22;27089;50.022;7.604;2023-12-20T06:20:28;3.90;99.90
41344;DHT22;27089;50.022;7.604;2023-12-20T06:22:56;3.90;99.90
41344;DHT22;27089;50.022;7.604;2023-12-20T06:25:23;3.90;99.90
41344;DHT22;27089;50.022;7.604;2023-12-20T06:27:50;3.90;99.90
41344;DHT22;27089;50.022;7.604;2023-12-20T06:30:17;3.90;99.90
41344;DHT22;27089;50.022;7.604;2023-12-20T06:32:44;3.80;99.90
41344;DHT22;27089;50.022;7.604;2023-12-20T06:35:12;3.70;99.90
41344;DHT22;27089;50.022;7.604;2023-12-20T06:37:39;3.60;99.90
41344;DHT22;27089;50.022;7.604;2023-12-20T06:40:10;3.50;99.90
41344;DHT22;27089;50.022;7.604;2023-12-20T06:42:37;3.60;99.90
41344;DHT22;27089;50.022;7.604;2023-12-20T06:45:05;3.60;99.90
41344;DHT22;27089;50.022;7.604;2023-12-20T06:47:32;3.70;99.90
41344;DHT22;27089;50.022;7.604;2023-12-20T06:49:59;3.70;99.90
41344;DHT22;27089;50.022;7.604;2023-12-20T06:52:26;3.80;99.90
41344;DHT22;27089;50.022;7.604;2023-12-20T06:54:53;3.90;99.90
41344;DHT22;27089;50.022;7.604;2023-12-20T06:57:22;3.90;99.90
41344;DHT22;27089;50.022;7.604;2023-12-20T06:59:52;4.00;99.90
41344;DHT22;27089;50.022;7.604;2023-12-20T07:02:19;4.10;99.90
41344;DHT22;27089;50.022;7.604;2023-12-20T07:04:48;4.10;99.90
41344;DHT22;27089;50.022;7.604;2023-12-20T07:07:15;4.00;99.90
41344;DHT22;27089;50.022;7.604;2023-12-20T07:09:42;4.00;99.90
41344;DHT22;27089;50.022;7.604;2023-12-20T07:12:09;3.90;99.90
41344;DHT22;27089;50.022;7.604;2023-12-20T07:14:37;3.90;99.90
41344;DHT22;27089;50.022;7.604;2023-12-20T07:17:04;3.90;99.90
41344;DHT22;27089;50.022;7.604;2023-12-20T07:19:33;3.90;99.90
41344;DHT22;27089;50.022;7.604;2023-12-20T07:22:00;3.80;99.90
41344;DHT22;27089;50.022;7.604;2023-12-20T07:24:27;3.80;99.90
41344;DHT22;27089;50.022;7.604;2023-12-20T07:26:54;3.90;99.90
41344;DHT22;27089;50.022;7.604;2023-12-20T07:29:21;3.90;99.90
41344;DHT22;27089;50.022;7.604;2023-12-20T07:31:49;4.00;99.90
41344;DHT22;27089;50.022;7.604;2023-12-20T07:34:17;4.00;99.90
41344;DHT22;27089;50.022;7.604;2023-12-20T07:36:45;4.20;99.90
41344;DHT22;27089;50.022;7.604;2023-12-20T07:39:13;4.30;99.90
41344;DHT22;27089;50.022;7.604;2023-12-20T07:41:40;4.40;99.90
41344;DHT22;27089;50.022;7.604;2023-12-20T07:44:07;4.40;99.90
41344;DHT22;27089;50.022;7.604;2023-12-20T07:46:34;4.50;99.90
41344;DHT22;27089;50.022;7.604;2023-12-20T07:49:03;4.60;99.90
41344;DHT22;27089;50.022;7.604;2023-12-20T07:51:30;4.60;99.90
41344;DHT22;27089;50.022;7.604;2023-12-20T07:53:57;4.60;99.90
41344;DHT22;27089;50.022;7.604;2023-12-20T07:56:24;4.60;99.90
41344;DHT22;27089;50.022;7.604;2023-12-20T07:58:51;4.70;99.90
41344;DHT22;27089;50.022;7.604;2023-12-20T08:01:18;4.70;99.90
41344;DHT22;27089;50.022;7.604;2023-12-20T08:03:45;4.70;99.90
41344;DHT22;27089;50.022;7.604;2023-12-20T08:06:14;4.70;99.90
41344;DHT22;27089;50.022;7.604;2023-12-20T08:08:42;4.70;99.90
41344;DHT22;27089;50.022;7.604;2023-12-20T08:11:09;4.80;99.90
41344;DHT22;27089;50.022;7.604;2023-12-20T08:13:36;4.90;99.90
41344;DHT22;27089;50.022;7.604;2023-12-20T08:16:03;4.90;99.90
41344;DHT22;27089;50.022;7.604;2023-12-20T08:18:30;4.90;99.90
41344;DHT22;27089;50.022;7.604;2023-12-20T08:20:57;5.00;99.90
41344;DHT22;27089;50.022;7.604;2023-12-20T08:23:25;5.00;99.90
41344;DHT22;27089;50.022;7.604;2023-12-20T08:25:52;5.00;99.90
41344;DHT22;27089;50.022;7.604;2023-12-20T08:28:19;5.00;99.90
41344;DHT22;27089;50.022;7.604;2023-12-20T08:30:46;5.10;99.90
41344;DHT22;27089;50.022;7.604;2023-12-20T08:33:13;5.10;99.90
41344;DHT22;27089;50.022;7.604;2023-12-20T08:35:40;5.20;99.90
41344;DHT22;27089;50.022;7.604;2023-12-20T08:38:07;5.20;99.90
41344;DHT22;27089;50.022;7.604;2023-12-20T08:40:37;5.20;99.90
41344;DHT22;27089;50.022;7.604;2023-12-20T08:43:04;5.20;99.90
41344;DHT22;27089;50.022;7.604;2023-12-20T08:45:31;5.30;99.90
41344;DHT22;27089;50.022;7.604;2023-12-20T08:47:58;5.30;99.90
41344;DHT22;27089;50.022;7.604;2023-12-20T08:50:25;5.30;99.90
41344;DHT22;27089;50.022;7.604;2023-12-20T08:52:52;5.30;99.90
41344;DHT22;27089;50.022;7.604;2023-12-20T08:55:19;5.40;99.90
41344;DHT22;27089;50.022;7.604;2023-12-20T08:57:48;5.40;99.90
41344;DHT22;27089;50.022;7.604;2023-12-20T09:00:16;5.50;99.90
41344;DHT22;27089;50.022;7.604;2023-12-20T09:02:45;5.60;99.90
41344;DHT22;27089;50.022;7.604;2023-12-20T09:05:13;5.70;99.90
41344;DHT22;27089;50.022;7.604;2023-12-20T09:07:40;5.70;99.90
41344;DHT22;27089;50.022;7.604;2023-12-20T09:10:07;5.70;99.90
41344;DHT22;27089;50.022;7.604;2023-12-20T09:12:34;5.80;99.90
41344;DHT22;27089;50.022;7.604;2023-12-20T09:15:05;5.80;99.90
41344;DHT22;27089;50.022;7.604;2023-12-20T09:17:32;5.80;99.90
41344;DHT22;27089;50.022;7.604;2023-12-20T09:19:59;5.90;99.90
41344;DHT22;27089;50.022;7.604;2023-12-20T09:22:26;6.00;99.90
41344;DHT22;27089;50.022;7.604;2023-12-20T09:24:53;6.00;99.90
41344;DHT22;27089;50.022;7.604;2023-12-20T09:27:20;6.10;99.90
41344;DHT22;27089;50.022;7.604;2023-12-20T09:29:47;6.10;99.90
41344;DHT22;27089;50.022;7.604;2023-12-20T09:32:16;6.20;99.90
41344;DHT22;27089;50.022;7.604;2023-12-20T09:34:43;6.20;99.90
41344;DHT22;27089;50.022;7.604;2023-12-20T09:37:10;6.20;99.90
41344;DHT22;27089;50.022;7.604;2023-12-20T09:39:37;6.20;99.90
41344;DHT22;27089;50.022;7.604;2023-12-20T09:42:05;6.20;99.90
41344;DHT22;27089;50.022;7.604;2023-12-20T09:44:33;6.20;99.90
41344;DHT22;27089;50.022;7.604;2023-12-20T09:47:02;6.20;99.90
41344;DHT22;27089;50.022;7.604;2023-12-20T09:49:32;6.20;99.90
41344;DHT22;27089;50.022;7.604;2023-12-20T09:52:00;6.20;99.90
41344;DHT22;27089;50.022;7.604;2023-12-20T09:54:28;6.20;99.90
41344;DHT22;27089;50.022;7.604;2023-12-20T09:56:56;6.20;99.90
41344;DHT22;27089;50.022;7.604;2023-12-20T09:59:23;6.20;99.90
41344;DHT22;27089;50.022;7.604;2023-12-20T10:01:50;6.30;99.90
41344;DHT22;27089;50.022;7.604;2023-12-20T10:04:18;6.20;99.90
41344;DHT22;27089;50.022;7.604;2023-12-20T10:06:47;6.30;99.90
41344;DHT22;27089;50.022;7.604;2023-12-20T10:09:14;6.30;99.90
41344;DHT22;27089;50.022;7.604;2023-12-20T10:11:41;6.30;99.90
41344;DHT22;27089;50.022;7.604;2023-12-20T10:14:10;6.50;99.90
41344;DHT22;27089;50.022;7.604;2023-12-20T10:16:37;6.60;99.90
41344;DHT22;27089;50.022;7.604;2023-12-20T10:19:04;6.70;99.90
41344;DHT22;27089;50.022;7.604;2023-12-20T10:21:31;6.70;99.90
41344;DHT22;27089;50.022;7.604;2023-12-20T10:24:00;6.80;99.90
41344;DHT22;27089;50.022;7.604;2023-12-20T10:26:27;6.80;99.90
41344;DHT22;27089;50.022;7.604;2023-12-20T10:28:56;6.70;99.90
41344;DHT22;27089;50.022;7.604;2023-12-20T10:31:27;6.70;99.90
41344;DHT22;27089;50.022;7.604;2023-12-20T10:33:56;6.70;99.90
41344;DHT22;27089;50.022;7.604;2023-12-20T10:36:24;6.60;99.90
41344;DHT22;27089;50.022;7.604;2023-12-20T10:38:53;6.60;99.90
41344;DHT22;27089;50.022;7.604;2023-12-20T10:41:25;6.50;99.90
41344;DHT22;27089;50.022;7.604;2023-12-20T10:43:55;6.50;99.90
41344;DHT22;27089;50.022;7.604;2023-12-20T10:46:22;6.50;99.90
41344;DHT22;27089;50.022;7.604;2023-12-20T10:48:53;6.50;99.90
41344;DHT22;27089;50.022;7.604;2023-12-20T10:51:20;6.60;99.90
41344;DHT22;27089;50.022;7.604;2023-12-20T10:53:48;6.60;99.90
41344;DHT22;27089;50.022;7.604;2023-12-20T10:56:17;6.60;99.90
41344;DHT22;27089;50.022;7.604;2023-12-20T10:58:47;6.60;99.90
41344;DHT22;27089;50.022;7.604;2023-12-20T11:01:15;6.60;99.90
41344;DHT22;27089;50.022;7.604;2023-12-20T11:03:47;6.60;99.90
41344;DHT22;27089;50.022;7.604;2023-12-20T11:06:25;6.60;99.90
41344;DHT22;27089;50.022;7.604;2023-12-20T11:08:58;6.70;99.90
41344;DHT22;27089;50.022;7.604;2023-12-20T11:11:39;6.60;99.90
41344;DHT22;27089;50.022;7.604;2023-12-20T11:14:16;6.50;99.90
41344;DHT22;27089;50.022;7.604;2023-12-20T11:16:46;6.50;99.90
41344;DHT22;27089;50.022;7.604;2023-12-20T11:19:13;6.50;99.90
41344;DHT22;27089;50.022;7.604;2023-12-20T11:21:40;6.50;99.90
41344;DHT22;27089;50.022;7.604;2023-12-20T11:24:08;6.40;99.90
41344;DHT22;27089;50.022;7.604;2023-12-20T11:26:36;6.30;99.90
41344;DHT22;27089;50.022;7.604;2023-12-20T11:29:31;6.30;99.90
41344;DHT22;27089;50.022;7.604;2023-12-20T11:32:00;6.30;99.90
41344;DHT22;27089;50.022;7.604;2023-12-20T11:34:27;6.30;99.90
41344;DHT22;27089;50.022;7.604;2023-12-20T11:36:58;6.30;99.90
41344;DHT22;27089;50.022;7.604;2023-12-20T11:39:26;6.40;99.90
41344;DHT22;27089;50.022;7.604;2023-12-20T11:41:55;6.50;99.90
41344;DHT22;27089;50.022;7.604;2023-12-20T11:44:25;6.60;99.90
41344;DHT22;27089;50.022;7.604;2023-12-20T11:46:55;6.70;99.90
41344;DHT22;27089;50.022;7.604;2023-12-20T11:49:24;6.70;99.90
41344;DHT22;27089;50.022;7.604;2023-12-20T11:51:51;6.80;99.90
41344;DHT22;27089;50.022;7.604;2023-12-20T11:54:18;7.00;99.90
41344;DHT22;27089;50.022;7.604;2023-12-20T11:56:46;7.10;99.90
41344;DHT22;27089;50.022;7.604;2023-12-20T11:59:14;7.20;99.90
41344;DHT22;27089;50.022;7.604;2023-12-20T12:01:48;7.20;99.90
41344;DHT22;27089;50.022;7.604;2023-12-20T12:04:16;7.30;99.90
41344;DHT22;27089;50.022;7.604;2023-12-20T12:06:44;7.30;99.90
41344;DHT22;27089;50.022;7.604;2023-12-20T12:09:11;7.20;99.90
41344;DHT22;27089;50.022;7.604;2023-12-20T12:11:38;7.10;99.90
41344;DHT22;27089;50.022;7.604;2023-12-20T12:14:06;7.10;99.90
41344;DHT22;27089;50.022;7.604;2023-12-20T12:16:33;7.00;99.90
41344;DHT22;27089;50.022;7.604;2023-12-20T12:19:00;6.90;99.90
41344;DHT22;27089;50.022;7.604;2023-12-20T12:21:29;6.90;99.90
41344;DHT22;27089;50.022;7.604;2023-12-20T12:24:06;6.80;99.90
41344;DHT22;27089;50.022;7.604;2023-12-20T12:26:33;6.70;99.90
41344;DHT22;27089;50.022;7.604;2023-12-20T12:29:00;6.70;99.90
41344;DHT22;27089;50.022;7.604;2023-12-20T12:31:28;6.60;99.90
41344;DHT22;27089;50.022;7.604;2023-12-20T12:33:56;6.60;99.90
41344;DHT22;27089;50.022;7.604;2023-12-20T12:36:23;6.50;99.90
41344;DHT22;27089;50.022;7.604;2023-12-20T12:38:51;6.50;99.90
41344;DHT22;27089;50.022;7.604;2023-12-20T12:41:18;6.60;99.90
41344;DHT22;27089;50.022;7.604;2023-12-20T12:43:45;6.70;99.90
41344;DHT22;27089;50.022;7.604;2023-12-20T12:46:12;6.70;99.90
41344;DHT22;27089;50.022;7.604;2023-12-20T12:48:39;6.80;99.90
41344;DHT22;27089;50.022;7.604;2023-12-20T12:51:06;6.80;99.90
41344;DHT22;27089;50.022;7.604;2023-12-20T12:53:38;6.80;99.90
41344;DHT22;27089;50.022;7.604;2023-12-20T12:56:06;6.80;99.90
41344;DHT22;27089;50.022;7.604;2023-12-20T12:58:33;6.70;99.90
41344;DHT22;27089;50.022;7.604;2023-12-20T13:01:00;6.70;99.90
41344;DHT22;27089;50.022;7.604;2023-12-20T13:03:29;6.70;99.90
41344;DHT22;27089;50.022;7.604;2023-12-20T13:05:56;6.60;99.90
41344;DHT22;27089;50.022;7.604;2023-12-20T13:08:23;6.60;99.90
41344;DHT22;27089;50.022;7.604;2023-12-20T13:10:50;6.60;99.90
41344;DHT22;27089;50.022;7.604;2023-12-20T13:13:18;6.60;99.90
41344;DHT22;27089;50.022;7.604;2023-12-20T13:15:45;6.70;99.90
41344;DHT22;27089;50.022;7.604;2023-12-20T13:18:16;6.70;99.90
41344;DHT22;27089;50.022;7.604;2023-12-20T13:20:44;6.70;99.90
41344;DHT22;27089;50.022;7.604;2023-12-20T13:23:11;6.70;99.90
41344;DHT22;27089;50.022;7.604;2023-12-20T13:25:38;6.70;99.90
41344;DHT22;27089;50.022;7.604;2023-12-20T13:28:05;6.60;99.90
41344;DHT22;27089;50.022;7.604;2023-12-20T13:30:33;6.50;99.90
41344;DHT22;27089;50.022;7.604;2023-12-20T13:33:01;6.50;99.90
41344;DHT22;27089;50.022;7.604;2023-12-20T13:35:28;6.50;99.90
41344;DHT22;27089;50.022;7.604;2023-12-20T13:37:55;6.50;99.90
41344;DHT22;27089;50.022;7.604;2023-12-20T13:40:23;6.40;99.90
41344;DHT22;27089;50.022;7.604;2023-12-20T13:42:50;6.40;99.90
41344;DHT22;27089;50.022;7.604;2023-12-20T13:45:17;6.40;99.90
41344;DHT22;27089;50.022;7.604;2023-12-20T13:47:45;6.40;99.90
41344;DHT22;27089;50.022;7.604;2023-12-20T13:50:13;6.30;99.90
41344;DHT22;27089;50.022;7.604;2023-12-20T13:52:40;6.30;99.90
41344;DHT22;27089;50.022;7.604;2023-12-20T13:55:07;6.20;99.90
41344;DHT22;27089;50.022;7.604;2023-12-20T13:57:34;6.10;99.90
41344;DHT22;27089;50.022;7.604;2023-12-20T14:00:03;6.10;99.90
41344;DHT22;27089;50.022;7.604;2023-12-20T14:02:30;6.00;99.90
41344;DHT22;27089;50.022;7.604;2023-12-20T14:04:59;6.00;99.90
41344;DHT22;27089;50.022;7.604;2023-12-20T14:07:27;6.00;99.90
41344;DHT22;27089;50.022;7.604;2023-12-20T14:09:54;6.00;99.90
41344;DHT22;27089;50.022;7.604;2023-12-20T14:12:21;5.90;99.90
41344;DHT22;27089;50.022;7.604;2023-12-20T14:14:49;5.90;99.90
41344;DHT22;27089;50.022;7.604;2023-12-20T14:17:16;5.90;99.90
41344;DHT22;27089;50.022;7.604;2023-12-20T14:19:43;5.90;99.90
41344;DHT22;27089;50.022;7.604;2023-12-20T14:22:11;5.90;99.90
41344;DHT22;27089;50.022;7.604;2023-12-20T14:24:43;5.90;99.90
41344;DHT22;27089;50.022;7.604;2023-12-20T14:27:10;5.90;99.90
41344;DHT22;27089;50.022;7.604;2023-12-20T14:29:37;5.90;99.90
41344;DHT22;27089;50.022;7.604;2023-12-20T14:32:05;6.00;99.90
41344;DHT22;27089;50.022;7.604;2023-12-20T14:34:32;5.90;99.90
41344;DHT22;27089;50.022;7.604;2023-12-20T14:36:59;6.00;99.90
41344;DHT22;27089;50.022;7.604;2023-12-20T14:39:27;6.00;99.90
41344;DHT22;27089;50.022;7.604;2023-12-20T14:41:54;6.00;99.90
41344;DHT22;27089;50.022;7.604;2023-12-20T14:44:21;6.00;99.90
41344;DHT22;27089;50.022;7.604;2023-12-20T14:46:48;6.00;99.90
41344;DHT22;27089;50.022;7.604;2023-12-20T14:49:16;6.00;99.90
41344;DHT22;27089;50.022;7.604;2023-12-20T14:51:44;6.00;99.90
41344;DHT22;27089;50.022;7.604;2023-12-20T14:54:13;6.00;99.90
41344;DHT22;27089;50.022;7.604;2023-12-20T14:56:41;6.00;99.90
41344;DHT22;27089;50.022;7.604;2023-12-20T14:59:08;6.00;99.90
41344;DHT22;27089;50.022;7.604;2023-12-20T15:01:36;6.00;99.90
41344;DHT22;27089;50.022;7.604;2023-12-20T15:04:03;6.00;99.90
41344;DHT22;27089;50.022;7.604;2023-12-20T15:06:30;6.00;99.90
41344;DHT22;27089;50.022;7.604;2023-12-20T15:08:59;6.00;99.90
41344;DHT22;27089;50.022;7.604;2023-12-20T15:11:26;6.00;99.90
41344;DHT22;27089;50.022;7.604;2023-12-20T15:13:54;6.00;99.90
41344;DHT22;27089;50.022;7.604;2023-12-20T15:16:22;6.00;99.90
41344;DHT22;27089;50.022;7.604;2023-12-20T15:18:49;6.00;99.90
41344;DHT22;27089;50.022;7.604;2023-12-20T15:21:16;6.00;99.90
41344;DHT22;27089;50.022;7.604;2023-12-20T15:23:43;6.00;99.90
41344;DHT22;27089;50.022;7.604;2023-12-20T15:26:18;6.00;99.90
41344;DHT22;27089;50.022;7.604;2023-12-20T15:28:45;6.00;99.90
41344;DHT22;27089;50.022;7.604;2023-12-20T15:31:13;6.00;99.90
41344;DHT22;27089;50.022;7.604;2023-12-20T15:33:40;6.00;99.90
41344;DHT22;27089;50.022;7.604;2023-12-20T15:36:07;6.00;99.90
41344;DHT22;27089;50.022;7.604;2023-12-20T15:38:34;6.00;99.90
41344;DHT22;27089;50.022;7.604;2023-12-20T15:41:01;6.00;99.90
41344;DHT22;27089;50.022;7.604;2023-12-20T15:43:28;6.00;99.90
41344;DHT22;27089;50.022;7.604;2023-12-20T15:45:55;6.00;99.90
41344;DHT22;27089;50.022;7.604;2023-12-20T15:48:24;6.00;99.90